Latest Observation

25 Stations

15 Minute Data | America/Los_Angeles
as of 9/4/26 12:23 AM PDT
Station Date Time Temp (°F) RH (%) Dew Pt (°F) Wind Spd (mph) Wind Dir (°) Wind Gust (mph) Latest Rain (In) Daily Rain (In) Daily Min Temp (°F) Daily Max Temp (°F)
Rockpile Upper (Cooley) 9/4/26 0015 51.2   3.4 98   8 50.8   1.0 8.2   4.0 NNW | 331 13.6   6.6 0.00 0.18 50.7   0.9 63.5   7.0
Rockpile Lower (Cooley) 9/4/26 0000 55.0   2.5 87   4 51.3   1.3 6.7   6.0 W | 272 10.3   7.6 0.00 0.18 54.6   0.1 67.1   5.2
Cloverdale-East (Ranch 83) 9/4/26 0015 53.4   7.1 - - 0.7   0.5 N | 354 1.9   1.2 0.00 0.06 52.2   2.8 71.6   4.8
Cloverdale-SE (Ranch 38) 9/4/26 0015 56.5   3.2 89   9 53.3   0.1 2.1   0.7 NNE | 20 3.2   1.9 0.00 0.04 56.3   0.2 70.8   5.5
Geyserville-North (Hoffman) 9/4/26 0015 56.0   3.2 89   3 52.9   2.2 1.2   0.8 NW | 324 2.6   1.2 0.00 0.00 55.2   1.6 72.8   6.7
Geyserville (Ranch 3) 9/4/26 0015 57.1   1.4 87   1 53.2   1.2 0.8   1.4 NW | 315 2.2   2.1 0.00 0.04 56.5   0.9 73.1   2.6
Geyserville-East (Ranch 40) 9/4/26 0015 56.1   1.6 90   2 53.2   0.8 3.1   0.1 NW | 320 6.4   0.3 0.00 0.03 55.9   1.2 70.2   4.8
Geyserville-South (Nervo Station) 9/4/26 0015 58.7   0.7 - - 4.5   4.5 WNW | 289 9.5   9.5 0.00 0.07 57.8   0.2 71.5   4.8
Peterson (Ranch 09) 9/4/26 0015 54.4   2.4 93   2 52.3   1.7 0.3   0.7 NNE | 14 1.9   0.5 0.00 0.06 54.0   1.1 69.8   5.1
Crazy Creek Ranch 9/4/26 0015 53.8   3.0 96   1 52.6   2.8 0.5   0.2 N | 1 1.4   0.2 0.00 0.07 53.8   1.8 70.6   6.0
Whitton Ranch (201e) 9/4/26 0015 55.9   0.0 92   4 53.5   1.3 1.8   1.8 NW | 316 5.0   5.0 0.00 0.08 53.5   0.5 73.7   4.5
Lytton East (Shop Hill Bottom) 9/4/26 0015 56.2   1.7 93   3 54.2   0.6 1.5   0.3 WSW | 243 3.2   0.0 0.00 0.08 55.0   0.2 72.7   3.1
Lytton East (Hill 5) 9/4/26 0015 57.2   0.8 88   0 53.6   1.0 3.5   1.4 W | 272 5.9   1.9 0.00 0.08 56.2   0.5 71.9   4.3
Lytton West Lower (Lew 6) 9/4/26 0015 52.7   6.0 94   5 50.9   4.3 0.5   0.4 WSW | 246 1.4   0.7 0.00 0.08 51.9   4.2 72.3   3.2
Lytton West Hill (23PS) 9/4/26 0015 56.4   2.6 94   6 54.8   0.6 1.7   1.1 WNW | 302 2.8   1.6 0.00 0.08 56.3   1.5 72.7   3.3
Big River 9/4/26 0015 56.8   0.1 98   5 56.4   1.3 1.4   0.3 W | 260 2.5   0.4 0.00 0.09 56.1   0.7 68.9   4.7
Jimtown-North (Piccolo Ranch 15) 9/4/26 0015 53.8   2.3 100   0 53.8   2.3 0.0   0.6 NE | 43 0.9   0.9 0.00 0.04 53.3   1.8 71.4   5.0
HWY 128/Chalk Hill Rd (Landslide) 9/4/26 0000 55.1   0.3 95   1 53.8   0.0 0.2   0.2 NNW | 344 1.6   0.3 0.00 0.13 55.0   0.1 70.6   5.1
N Chalk Hill Rd (Ranch 63) 9/4/26 0015 54.4   0.9 94   0 52.6   0.9 0.7   0.6 E | 89 1.7   0.5 0.00 0.09 53.5   0.4 70.5   3.7
Newman Knights Valley 8/18/26 0015 56.2   1.8 85   4 51.7   0.4 0.8   3.5 NE | 55 2.3   5.8 0.00 0.00 55.0   1.2 88.3   0.6
Knights Valley (Bavarian Lion) 9/4/26 0015 52.5   0.6 95   1 51.2   0.8 0.2   0.1 SE | 128 1.5   0.4 0.00 0.12 52.1   0.5 69.1   5.9
Red Tail 9/4/26 0015 54.9   0.1 92   1 52.6   0.4 0.1   0.5 N | 355 1.0   0.6 0.00 0.11 54.4   0.6 69.7   5.3
Franz Valley (Stornetta) 9/4/26 0015 55.4   2.6 96   1 54.2   2.9 0.3   0.1 ENE | 64 1.6   0.7 0.00 0.26 53.7   1.6 68.5   5.8
Upper Dry Creek Valley 9/4/26 0015 53.3   5.4 94   10 51.6   2.2 0.3   0.8 ENE | 76 1.3   1.4 0.00 0.05 53.2   1.5 72.0   4.2
Lower Dry Creek Valley 9/4/26 0015 54.8   3.5 100   11 54.8   0.2 0.0   0.0 N | 349 0.1   0.1 0.00 0.08 54.2   1.5 72.4   3.7
Max     58.7 100 56.4 8.2 - 13.6 0.00 0.26 57.8 73.7
Avg     55.1 93 53.1 1.7 - 3.5 0.00 - - -
Min     51.2 87 50.8 0.0 - 0.1 0.00 0.00 50.7 63.5